Strona główna
METAR-TAF:

METAR-TAF

Lotnisko :

Glasgow Municipal Airport

Glasgow, Kentucky, Stany Zjednoczone

Szerokość geograficzna: 37-01-54N, Długość geograficzna: 085-57-13W, wysokość: 218 m

Aktualna obserwacja pogody

Raport powstał 28 minut temu, godzina 07:55 UTC
Cisza
Temperatura 18°C
Wilgotność 94%
Ciśnienie 1014 hPa
Widzialność: 16.1 km
Rozproszone chmury na wysokości 800 ft
Rozproszone chmury na wysokości 6000 ft
Przerywane chmury na wysokości 8500 ft

METAR: KGLW 280755Z AUTO 00000KT 10SM SCT008 SCT060 BKN085 18/17 A2994 RMK AO2 T01780165

czas: 03:23 (08:23 UTC)


TAF: brakujący

Obserwacja i prognoza pogody dla ponad 4000 lotnisk (raport METAR i TAF).

Dostępne stacje oznaczono żółtymi i czerwonymi punktami na mapie.

Najedź kursorem aby zobaczyć nazwę stacji.

Kliknij aby zobaczyć obserwacje i prognozy pogody.

Aby zmienić mapę: kliknij na zielony przycisk z czarnym krzyżykiem, aby powiększyć; na zielony przycisk z myślnikiem, aby pomniejszyć; na zielone strzałki, aby przejść do map sąsiednich.


METAR-TAF: